Home > Products > Valid Products > MTR

000
SAUS43 KUNR 310657
MTR2WX
METAR K2WX 310656Z AUTO 13017G22KT 01/M02 A3038 RMK AO1 SLP314
T00061022 400610000





000
SAUS43 KUNR 310657
MTRD07
METAR KD07 310656Z AUTO 13009KT M01/M03 A3052 RMK AO1 SLP366
T10061028 400671006





000
SAUS43 KUNR 310558
MTR2WX
METAR K2WX 310556Z AUTO 14012KT 01/M02 A3039 RMK AO1 SLP317
T00061022 10028 20006 58000





000
SAUS43 KUNR 310557
MTRD07
METAR KD07 310556Z AUTO 10009KT M01/M03 A3051 RMK AO1 SLP363
T10061028 10028 21006 50009





000
SAUS43 KUNR 310458
MTR2WX
METAR K2WX 310456Z AUTO 13012KT 01/M02 A3040 RMK AO1 SLP323
T00111022





000
SAUS43 KUNR 310457
MTRD07
METAR KD07 310456Z AUTO 08008KT 00/M02 A3052 RMK AO1 SLP363
T00001022





000
SAUS43 KUNR 310357
MTR2WX
METAR K2WX 310356Z AUTO 11010KT 01/M02 A3039 RMK AO1 SLP321
T00111022





000
SAUS43 KUNR 310357
MTRD07
METAR KD07 310356Z AUTO 06011KT 01/M02 A3050 RMK AO1 SLP357
T00061022





000
SAUS43 KUNR 310357
MTR2WX
METAR K2WX 310356Z AUTO 11010KT 01/M02 A3039 RMK AO1 SLP321
T00111022





000
SAUS43 KUNR 310357
MTRD07
METAR KD07 310356Z AUTO 06011KT 01/M02 A3050 RMK AO1 SLP357
T00061022





000
SAUS43 KUNR 310257
MTRD07
METAR KD07 310256Z AUTO 06011KT 02/M02 A3048 RMK AO1 SLP351
T00171017 53013





000
SAUS43 KUNR 310257
MTR2WX
METAR K2WX 310256Z AUTO 10008KT 01/M02 A3039 RMK AO1 SLP321
T00111022 51008





000
SAUS43 KUNR 310157
MTR2WX
METAR K2WX 310156Z AUTO 10008KT 02/M02 A3039 RMK AO1 SLP320
T00171017





000
SAUS43 KUNR 310157
MTRD07
METAR KD07 310156Z AUTO 04012KT 02/M02 A3047 RMK AO1 SLP348
T00221017





000
SAUS43 KUNR 310058
MTRD07
METAR KD07 310056Z AUTO 04007KT 03/M02 A3045 RMK AO1 SLP340
T00281017





000
SAUS43 KUNR 310058
MTR2WX
METAR K2WX 310056Z AUTO 09012KT 02/M02 A3038 RMK AO1 SLP313
T00221017





000
SAUS43 KUNR 302358
MTR2WX
METAR K2WX 302356Z AUTO 07011KT 03/M01 A3036 RMK AO1 SLP306
T00281011 10056 20028 51013





000
SAUS43 KUNR 302357
MTRD07
METAR KD07 302356Z AUTO 03009KT 03/M01 A3044 RMK AO1 SLP336
T00281011 10056 20028 53019





000
SAUS43 KUNR 302258
MTR2WX
METAR K2WX 302256Z AUTO 05009KT 03/M01 A3035 RMK AO1 SLP302
T00331011





000
SAUS43 KUNR 302257
MTRD07
METAR KD07 302256Z AUTO 04009KT 04/M01 A3042 RMK AO1 SLP326
T00391006





000
SAUS43 KUNR 302157
MTRD07
METAR KD07 302156Z AUTO 02009KT 04/M01 A3040 RMK AO1 SLP319
T00441006





000
SAUS43 KUNR 302157
MTR2WX
METAR K2WX 302156Z AUTO 07010KT 05/M01 A3033 RMK AO1 SLP296
T00501006





000
SAUS43 KUNR 302157
MTRD07
METAR KD07 302156Z AUTO 02009KT 04/M01 A3040 RMK AO1 SLP319
T00441006





000
SAUS43 KUNR 302157
MTR2WX
METAR K2WX 302156Z AUTO 07010KT 05/M01 A3033 RMK AO1 SLP296
T00501006





000
SAUS43 KUNR 302058
MTRD07
METAR KD07 302056Z AUTO 02012KT 04/M01 A3038 RMK AO1 SLP311
T00441006 53008





000
SAUS43 KUNR 302057
MTR2WX
METAR K2WX 302056Z AUTO 03007KT 04/M01 A3032 RMK AO1 SLP290
T00441006 53005





000
SAUS43 KUNR 301957
MTR2WX
METAR K2WX 301956Z AUTO 03006KT 04/M01 A3032 RMK AO1 SLP288
T00441006





000
SAUS43 KUNR 301957
MTRD07
METAR KD07 301956Z AUTO 01012KT 04/M01 A3037 RMK AO1 SLP304
T00441006





000
SAUS43 KUNR 301857
MTR2WX
METAR K2WX 301856Z AUTO 35003KT 03/M01 A3031 RMK AO1 SLP285
T00331006





000
SAUS43 KUNR 301857
MTRD07
METAR KD07 301856Z AUTO 35012KT 04/00 A3036 RMK AO1 SLP299 T00390000





000
SAUS43 KUNR 301757
MTR2WX
METAR K2WX 301756Z AUTO 01007KT 03/M01 A3030 RMK AO1 SLP285
T00331006 10033 20006 51017





000
SAUS43 KUNR 301757
MTRD07
METAR KD07 301756Z AUTO 01013KT 03/00 A3036 RMK AO1 SLP301 T00330000
10039 20011 51026





000
SAUS43 KUNR 301657
MTR2WX
METAR K2WX 301656Z AUTO 01007KT 02/00 A3029 RMK AO1 SLP282 T00220000





000
SAUS43 KUNR 301657
MTRD07
METAR KD07 301656Z AUTO 35014KT 04/01 A3033 RMK AO1 SLP290 T00390006





000
SAUS43 KUNR 301657
MTRD07
METAR KD07 301656Z AUTO 35014KT 04/01 A3033 RMK AO1 SLP290 T00390006





000
SAUS43 KUNR 301657
MTR2WX
METAR K2WX 301656Z AUTO 01007KT 02/00 A3029 RMK AO1 SLP282 T00220000





000
SAUS43 KUNR 301557
MTRD07
METAR KD07 301556Z AUTO 34015KT 03/01 A3030 RMK AO1 SLP284 T00280006





000
SAUS43 KUNR 301557
MTR2WX
METAR K2WX 301556Z AUTO 01010KT 02/00 A3027 RMK AO1 SLP275 T00170000





000
SAUS43 KUNR 301458
MTR2WX
METAR K2WX 301456Z AUTO 35009KT 01/00 A3025 RMK AO1 SLP266 T00110000
53031





000
SAUS43 KUNR 301458
MTRD07
METAR KD07 301456Z AUTO 35018KT 02/01 A3027 RMK AO1 SLP274 T00220006
53031





000
SAUS43 KUNR 301401
MTR2WX
METAR K2WX 301356Z AUTO 34017KT 01/M01 A3021 RMK AO1 SLP252
T00061006 $





000
SAUS43 KUNR 301357
MTRD07
METAR KD07 301356Z AUTO 33014KT 01/M01 A3024 RMK AO1 SLP262
T00111006





000
SAUS43 KUNR 301300
MTR2WX
METAR K2WX 301256Z AUTO 32009KT 02/M01 A3017 RMK AO1 SLP237
T00221006 $





000
SAUS43 KUNR 301257
MTRD07
METAR KD07 301256Z AUTO 33014KT 02/00 A3020 RMK AO1 SLP244 T00170000





000
SAUS43 KUNR 301201
MTR2WX
METAR K2WX 301156Z AUTO 32010KT 03/00 A3015 RMK AO1 SLP223 T00330000
10061 20000 53020 $





000
SAUS43 KUNR 301157
MTRD07
METAR KD07 301156Z AUTO 32012KT 02/01 A3017 RMK AO1 SLP236 T00220006
10067 20022 53021





000
SAUS43 KUNR 301100
MTR2WX
METAR K2WX 301056Z AUTO 30010KT 03/M01 A3012 RMK AO1 SLP211
T00281006 $





000
SAUS43 KUNR 301100
MTR2WX
METAR K2WX 301056Z AUTO 30010KT 03/M01 A3012 RMK AO1 SLP211
T00281006 $





000
SAUS43 KUNR 301057
MTRD07
METAR KD07 301056Z AUTO 31010KT 03/01 A3015 RMK AO1 SLP222 T00280006





000
SAUS43 KUNR 301057
MTRD07
METAR KD07 301056Z AUTO 31010KT 03/01 A3015 RMK AO1 SLP222 T00280006





000
SAUS43 KUNR 301000
MTR2WX
METAR K2WX 300956Z AUTO 31012KT 02/M01 A3010 RMK AO1 SLP203
T00171011 $





000
SAUS43 KUNR 300958
MTRD07
METAR KD07 300956Z AUTO 30012KT 03/01 A3013 RMK AO1 SLP216 T00330006





000
SAUS43 KUNR 300902 COR
MTR2WX
METAR K2WX 300856Z AUTO 31011KT 03/M01 A3008 RMK AO1 SLP195
T00331006 53022 $





000
SAUS43 KUNR 300901 COR
MTR2WX
METAR K2WX 300856Z AUTO 31011KT 03/M01 A3008 RMK AO1 SLP195
T00331006 53022 $





000
SAUS43 KUNR 300857
MTRD07
METAR KD07 300856Z AUTO 30011KT 04/01 A3011 RMK AO1 SLP208 T00390006
53022





000
SAUS43 KUNR 300800
MTR2WX
METAR K2WX 300756Z AUTO 30012KT 03/M01 A3006 RMK AO1 SLP190
T00281006 $





000
SAUS43 KUNR 300757
MTRD07
METAR KD07 300756Z AUTO 29010KT 06/02 A3009 RMK AO1 SLP200 T00560017





000
SAUS43 KUNR 300701
MTR2WX
METAR K2WX 300656Z AUTO 30014KT 04/01 A3003 RMK AO1 SLP180 T00440006
401501044 $





000
SAUS43 KUNR 300657
MTRD07
METAR KD07 300656Z AUTO 29013KT 07/02 A3005 RMK AO1 SLP189 T00670022
401331056





000
SAUS43 KUNR 300600
MTR2WX
METAR K2WX 300556Z AUTO 28010KT 03/00 A3001 RMK AO1 SLP173 T00330000
10111 20022 53012 $





000
SAUS43 KUNR 300557
MTRD07
METAR KD07 300556Z AUTO 28011KT 07/02 A3003 RMK AO1 SLP184 T00670022
10106 20056 51008





000
SAUS43 KUNR 300500
MTR2WX
METAR K2WX 300456Z AUTO 29011KT 03/01 A3000 RMK AO1 SLP175 T00330006
$





000
SAUS43 KUNR 300500
MTR2WX
METAR K2WX 300456Z AUTO 29011KT 03/01 A3000 RMK AO1 SLP175 T00330006
$





000
SAUS43 KUNR 300457
MTRD07
METAR KD07 300456Z AUTO 28011KT 07/02 A3003 RMK AO1 SLP186 T00720022





000
SAUS43 KUNR 300457
MTRD07
METAR KD07 300456Z AUTO 28011KT 07/02 A3003 RMK AO1 SLP186 T00720022





000
SAUS43 KUNR 300402 COR
MTR2WX
METAR K2WX 300356Z AUTO 28008KT 03/01 A2999 RMK AO1 SLP175 T00330006
$





000
SAUS43 KUNR 300401 COR
MTR2WX
METAR K2WX 300356Z AUTO 28008KT 03/01 A2999 RMK AO1 SLP175 T00330006
$





000
SAUS43 KUNR 300357
MTRD07
METAR KD07 300356Z AUTO 28010KT 07/02 A3002 RMK AO1 SLP185 T00670017





000
SAUS43 KUNR 300301
MTR2WX
METAR K2WX 300256Z AUTO 29009KT 05/01 A2998 RMK AO1 SLP174 T00500011
$





000
SAUS43 KUNR 300257
MTRD07
METAR KD07 300256Z AUTO 29009KT 06/01 A3001 RMK AO1 SLP186 T00560011
51010





000
SAUS43 KUNR 300201
MTR2WX
METAR K2WX 300156Z AUTO 30010KT 06/01 A2996 RMK AO1 SLP174 T00560011
$





000
SAUS43 KUNR 300157
MTRD07
METAR KD07 300156Z AUTO 29007KT 07/01 A3000 RMK AO1 SLP185 T00670011





000
SAUS43 KUNR 300100
MTR2WX
METAR K2WX 300056Z AUTO 31009KT 07/01 A2995 RMK AO1 SLP167 T00670011
$





000
SAUS43 KUNR 300057
MTRD07
METAR KD07 300056Z AUTO 30009KT 11/02 A2999 RMK AO1 SLP179 T01060017





000
SAUS43 KUNR 300000
MTR2WX
METAR K2WX 292356Z AUTO 31010KT 11/02 A2993 RMK AO1 SLP155 T01110022
10150 20106 51014





000
SAUS43 KUNR 292357
MTRD07
METAR KD07 292356Z AUTO 21009KT 09/M01 A2997 RMK AO1 SLP175
T00891011 10133 20078 53003





000
SAUS43 KUNR 292300
MTR2WX
METAR K2WX 292256Z AUTO 31015KT 13/02 A2993 RMK AO1 PK WND
31028/2231 SLP148 T01330017





000
SAUS43 KUNR 292257
MTRD07
METAR KD07 292256Z AUTO 20006KT 13/M01 A2996 RMK AO1 SLP164
T01331006





000
SAUS43 KUNR 292201
MTR2WX
METAR K2WX 292156Z AUTO 31025G32KT 15/02 A2990 RMK AO1 PK WND
31032/2149 SLP138 T01500017





000
SAUS43 KUNR 292157
MTRD07
METAR KD07 292156Z AUTO 17006KT 12/M01 A2995 RMK AO1 SLP163
T01171006





000
SAUS43 KUNR 292101
MTR2WX
METAR K2WX 292056Z AUTO 29024KT 14/01 A2989 RMK AO1 PK WND
30030/2042 SLP135 T01440011 55009





000
SAUS43 KUNR 292057
MTRD07
METAR KD07 292056Z AUTO 22006KT 12/M02 A2997 RMK AO1 SLP167
T01171022 55004





000
SAUS43 KUNR 292001
MTR2WX
METAR K2WX 291956Z AUTO 26014KT 13/01 A2988 RMK AO1 SLP134 T01330011





000
SAUS43 KUNR 291957
MTRD07
METAR KD07 291956Z AUTO 19005KT 11/M01 A2996 RMK AO1 SLP165
T01111011





000
SAUS43 KUNR 291900
MTR2WX
METAR K2WX 291856Z AUTO 26009KT 11/00 A2990 RMK AO1 SLP143 T01110000





000
SAUS43 KUNR 291858
MTRD07
METAR KD07 291856Z AUTO 19011KT 10/M02 A2996 RMK AO1 SLP168
T01001017





000
SAUS43 KUNR 291802 COR
MTR2WX
METAR K2WX 291756Z AUTO 25011KT 12/M03 A2992 RMK AO1 SLP147
T01171033 10117 21039 56002





000
SAUS43 KUNR 291801 COR
MTR2WX
METAR K2WX 291756Z AUTO 25011KT 12/M03 A2992 RMK AO1 SLP147
T01171033 10117 21039 56002





000
SAUS43 KUNR 291800
MTR2WX
METAR K2WX 291756Z AUTO 25011KT 12/M03 A2992 RMK AO1 SLP147
T01171033 10117 21039 56002





000
SAUS43 KUNR 291757
MTRD07
METAR KD07 291756Z AUTO 19008KT 07/M02 A2998 RMK AO1 SLP178
T00721022 10078 21044 56014





000
SAUS43 KUNR 291702 COR
MTR2WX
METAR K2WX 291656Z AUTO VRB03KT 07/M02 A2992 RMK AO1 SLP153
T00721022





000
SAUS43 KUNR 291701 COR
MTR2WX
METAR K2WX 291656Z AUTO VRB03KT 07/M02 A2992 RMK AO1 SLP153
T00721022





000
SAUS43 KUNR 291657
MTRD07
METAR KD07 291656Z AUTO 18013KT 06/M03 A2998 RMK AO1 SLP177
T00611028





000
SAUS43 KUNR 291601
MTR2WX
METAR K2WX 291556Z AUTO 10003KT 04/M03 A2991 RMK AO1 SLP153
T00391028





000
SAUS43 KUNR 291557
MTRD07
METAR KD07 291556Z AUTO 18014KT 03/M02 A3000 RMK AO1 SLP186
T00331022





000
SAUS43 KUNR 291500
MTR2WX
METAR K2WX 291456Z AUTO 00000KT M01/M05 A2992 RMK AO1 SLP162
T10061050 55004





000
SAUS43 KUNR 291457
MTRD07
METAR KD07 291456Z AUTO 17015KT M01/M03 A3002 RMK AO1 SLP198
T10061033 56006





000
SAUS43 KUNR 291400
MTR2WX
METAR K2WX 291356Z AUTO 15004KT M03/M07 A2992 RMK AO1 SLP162
T10331067





000
SAUS43 KUNR 291357
MTRD07
METAR KD07 291356Z AUTO 16015KT M03/M06 A3003 RMK AO1 SLP202
T10331056





000
SAUS43 KUNR 291302 COR
MTR2WX
METAR K2WX 291256Z AUTO 17006KT M03/M07 A2993 RMK AO1 SLP165
T10331067





000
SAUS43 KUNR 291301 COR
MTR2WX
METAR K2WX 291256Z AUTO 17006KT M03/M07 A2993 RMK AO1 SLP165
T10331067





000
SAUS43 KUNR 291257
MTRD07
METAR KD07 291256Z AUTO 16015KT M04/M06 A3003 RMK AO1 SLP202
T10441061





000
SAUS43 KUNR 291201
MTR2WX
METAR K2WX 291156Z AUTO 16010KT M03/M07 A2993 RMK AO1 SLP164
T10331067 11017 21044 57019





000
SAUS43 KUNR 291157
MTRD07
METAR KD07 291156Z AUTO 16015KT M04/M06 A3004 RMK AO1 SLP204
T10441056 11022 21056 56023





000
SAUS43 KUNR 291100
MTR2WX
METAR K2WX 291056Z AUTO 15009KT M03/M07 A2995 RMK AO1 SLP166
T10281067





000
SAUS43 KUNR 291057
MTRD07
METAR KD07 291056Z AUTO 17014KT M04/M06 A3007 RMK AO1 SLP211
T10391056





000
SAUS43 KUNR 291000
MTR2WX
METAR K2WX 290956Z AUTO 19005KT M03/M07 A2998 RMK AO1 SLP175
T10281067





000
SAUS43 KUNR 290957
MTRD07
METAR KD07 290956Z AUTO 16013KT M04/M06 A3008 RMK AO1 SLP214
T10441056





000
SAUS43 KUNR 290900
MTR2WX
METAR K2WX 290856Z AUTO 14006KT M04/M07 A3000 RMK AO1 SLP183
T10391072 58014





000
SAUS43 KUNR 290857
MTRD07
METAR KD07 290856Z AUTO 17011KT M03/M05 A3012 RMK AO1 SLP224
T10281050 56009





000
SAUS43 KUNR 290802 COR
MTR2WX
METAR K2WX 290756Z AUTO 15007KT M03/M07 A3001 RMK AO1 SLP189
T10331067





000
SAUS43 KUNR 290801 COR
MTR2WX
METAR K2WX 290756Z AUTO 15007KT M03/M07 A3001 RMK AO1 SLP189
T10331067





000
SAUS43 KUNR 290800
MTR2WX
METAR K2WX 290756Z AUTO 15007KT M03/M07 A3001 RMK AO1 SLP189
T10331067





000
SAUS43 KUNR 290758
MTRD07
METAR KD07 290756Z AUTO 19013KT M02/M04 A3013 RMK AO1 SLP228
T10221044





000
SAUS43 KUNR 290702 COR
MTR2WX
METAR K2WX 290656Z AUTO 18007KT M02/M06 A3003 RMK AO1 SLP195
T10221061 400781028





000
SAUS43 KUNR 290701 COR
MTR2WX
METAR K2WX 290656Z AUTO 18007KT M02/M06 A3003 RMK AO1 SLP195
T10221061 400781028





000
SAUS43 KUNR 290700
MTR2WX
METAR K2WX 290656Z AUTO 18007KT M02/M06 A3003 RMK AO1 SLP195
T10221061 400781028





000
SAUS43 KUNR 290657
MTRD07
METAR KD07 290656Z AUTO 20006KT M04/M06 A3013 RMK AO1 SLP235
T10441061 400721056





000
SAUS43 KUNR 290605 COR
MTRD07
METAR KD07 290556Z AUTO 21006KT M04/M06 A3015 RMK AO1 SLP240
T10391056 10028 21039 55000





000
SAUS43 KUNR 290602 COR
MTR2WX
METAR K2WX 290556Z AUTO 20006KT M02/M06 A3004 RMK AO1 SLP201
T10171061 10044 21028 58004





000
SAUS43 KUNR 290601 COR
MTR2WX
METAR K2WX 290556Z AUTO 20006KT M02/M06 A3004 RMK AO1 SLP201
T10171061 10044 21028 58004





000
SAUS43 KUNR 290601 COR
MTRD07
METAR KD07 290556Z AUTO 21006KT M04/M06 A3015 RMK AO1 SLP240
T10391056 10028 21039 55000





000
SAUS43 KUNR 290600
MTR2WX
METAR K2WX 290556Z AUTO 20006KT M02/M06 A3004 RMK AO1 SLP201
T10171061 10044 21028 58004





000
SAUS43 KUNR 290559 COR
MTRD07
METAR KD07 290556Z AUTO 21006KT M04/M06 A3015 RMK AO1 SLP240
T10391056 10028 21039 55000





000
SAUS43 KUNR 290557
MTRD07
METAR KD07 290556Z AUTO 21006KT M04/M06 A3015 RMK AO1 SLP240
T10391056 10028 21039 55000





000
SAUS43 KUNR 290500
MTR2WX
METAR K2WX 290456Z AUTO 22003KT M02/M06 A3005 RMK AO1 SLP203
T10171056





000
SAUS43 KUNR 290457
MTRD07
METAR KD07 290456Z AUTO 10003KT M01/M04 A3014 RMK AO1 SLP235
T10061044





000
SAUS43 KUNR 290401
MTR2WX
METAR K2WX 290356Z AUTO 22003KT M01/M05 A3006 RMK AO1 SLP207
T10061050





000
SAUS43 KUNR 290401
MTR2WX
METAR K2WX 290356Z AUTO 22003KT M01/M05 A3006 RMK AO1 SLP207
T10061050





000
SAUS43 KUNR 290357
MTRD07
METAR KD07 290356Z AUTO 06006KT M02/M05 A3014 RMK AO1 SLP237
T10171050





000
SAUS43 KUNR 290301
MTR2WX
METAR K2WX 290256Z AUTO 20003KT 00/M05 A3006 RMK AO1 SLP206
T00001050 50003





000
SAUS43 KUNR 290257
MTRD07
METAR KD07 290256Z AUTO 00000KT M02/M05 A3015 RMK AO1 SLP238
T10171050 51007





000
SAUS43 KUNR 290200
MTR2WX
METAR K2WX 290156Z AUTO 03007KT 02/M04 A3006 RMK AO1 SLP204
T00221044





000
SAUS43 KUNR 290157
MTRD07
METAR KD07 290156Z AUTO 05008KT M01/M04 A3014 RMK AO1 SLP235
T10061044





000
SAUS43 KUNR 290100
MTR2WX
METAR K2WX 290056Z AUTO 04006KT 02/M04 A3005 RMK AO1 SLP203
T00221044





000
SAUS43 KUNR 290058
MTRD07
METAR KD07 290056Z AUTO 05006KT 01/M04 A3014 RMK AO1 SLP234
T00111039





000
SAUS43 KUNR 290000
MTR2WX
METAR K2WX 282356Z AUTO 35008KT 04/M05 A3005 RMK AO1 SLP198
T00441050 10078 20033 53005





000
SAUS43 KUNR 282357
MTRD07
METAR KD07 282356Z AUTO 01004KT 03/M03 A3012 RMK AO1 SLP225
T00281033 10072 20028 53009





000
SAUS43 KUNR 282301
MTR2WX
METAR K2WX 282256Z AUTO 32011KT 07/M05 A3004 RMK AO1 SLP191
T00721050





000
SAUS43 KUNR 282257
MTRD07
METAR KD07 282256Z AUTO 33009KT 06/M03 A3011 RMK AO1 SLP217
T00611033





000
SAUS43 KUNR 282200
MTR2WX
METAR K2WX 282156Z AUTO 32017KT 08/M05 A3003 RMK AO1 SLP188
T00781050





000
SAUS43 KUNR 282157
MTRD07
METAR KD07 282156Z AUTO 32013KT 07/M02 A3009 RMK AO1 SLP212
T00721022





000
SAUS43 KUNR 282102 COR
MTR2WX
METAR K2WX 282056Z AUTO 31015KT 07/M04 A3003 RMK AO1 PK WND
33026/2035 SLP187 T00721044 58009





000
SAUS43 KUNR 282101 COR
MTR2WX
METAR K2WX 282056Z AUTO 31015KT 07/M04 A3003 RMK AO1 PK WND
33026/2035 SLP187 T00721044 58009





000
SAUS43 KUNR 282057
MTRD07
METAR KD07 282056Z AUTO 32018KT 07/M03 A3009 RMK AO1 SLP210
T00671028 56006





000
SAUS43 KUNR 282001
MTR2WX
METAR K2WX 281956Z AUTO 31016KT 07/M04 A3004 RMK AO1 SLP190
T00671044





000
SAUS43 KUNR 281957
MTRD07
METAR KD07 281956Z AUTO 32017G24KT 06/M02 A3009 RMK AO1 SLP211
T00611022





000
SAUS43 KUNR 281900
MTR2WX
METAR K2WX 281856Z AUTO 30018KT 06/M04 A3005 RMK AO1 PK WND
31030/1846 SLP197 T00561039





000
SAUS43 KUNR 281858
MTRD07
METAR KD07 281856Z AUTO 31022G28KT 04/M03 A3011 RMK AO1 PK WND
30028/1855 SLP217 T00441028





000
SAUS43 KUNR 281809 COR
MTRD07
METAR KD07 281756Z AUTO 31015G24KT 04/M03 A3011 RMK AO1 PK WND
30027/1726 SLP221 T00391028 10044 20006 51012





000
SAUS43 KUNR 281806 COR
MTRD07
METAR KD07 281756Z AUTO 31015G24KT 04/M03 A3011 RMK AO1 PK WND
30027/1726 SLP221 T00391028 10044 20006 51012





000
SAUS43 KUNR 281804 COR
MTRD07
METAR KD07 281756Z AUTO 31015G24KT 04/M03 A3011 RMK AO1 PK WND
30027/1726 SLP221 T00391028 10044 20006 51012





000
SAUS43 KUNR 281801 COR
MTRD07
METAR KD07 281756Z AUTO 31015G24KT 04/M03 A3011 RMK AO1 PK WND
30027/1726 SLP221 T00391028 10044 20006 51012





000
SAUS43 KUNR 281800
MTR2WX
METAR K2WX 281756Z AUTO 31018G25KT 04/M03 A3006 RMK AO1 SLP202
T00391033 10044 20011 50007





000
SAUS43 KUNR 281759 COR
MTRD07
METAR KD07 281756Z AUTO 31015G24KT 04/M03 A3011 RMK AO1 PK WND
30027/1726 SLP221 T00391028 10044 20006 51012





000
SAUS43 KUNR 281757
MTRD07
METAR KD07 281756Z AUTO 31015G24KT 04/M03 A3011 RMK AO1 PK WND
30027/1726 SLP221 T00391028 10044 20006 51012





000
SAUS43 KUNR 281702 COR
MTR2WX
METAR K2WX 281656Z AUTO 29016KT 03/M03 A3006 RMK AO1 PK WND
31028/1601 SLP203 T00331033





000
SAUS43 KUNR 281701 COR
MTR2WX
METAR K2WX 281656Z AUTO 29016KT 03/M03 A3006 RMK AO1 PK WND
31028/1601 SLP203 T00331033





000
SAUS43 KUNR 281657
MTRD07
METAR KD07 281656Z AUTO 31019G27KT 03/M03 A3010 RMK AO1 PK WND
31028/1604 SLP218 T00331028





000
SAUS43 KUNR 281657
MTRD07
METAR KD07 281656Z AUTO 31019G27KT 03/M03 A3010 RMK AO1 PK WND
31028/1604 SLP218 T00331028





000
SAUS43 KUNR 281609 COR
MTRD07
METAR KD07 281556Z AUTO 31023G30KT 03/M03 A3009 RMK AO1 PK WND
31032/1508 SLP213 T00281028





000
SAUS43 KUNR 281606 COR
MTRD07
METAR KD07 281556Z AUTO 31023G30KT 03/M03 A3009 RMK AO1 PK WND
31032/1508 SLP213 T00281028





000
SAUS43 KUNR 281604 COR
MTRD07
METAR KD07 281556Z AUTO 31023G30KT 03/M03 A3009 RMK AO1 PK WND
31032/1508 SLP213 T00281028





000
SAUS43 KUNR 281602 COR
MTRD07
METAR KD07 281556Z AUTO 31023G30KT 03/M03 A3009 RMK AO1 PK WND
31032/1508 SLP213 T00281028





000
SAUS43 KUNR 281602 COR
MTRD07
METAR KD07 281556Z AUTO 31023G30KT 03/M03 A3009 RMK AO1 PK WND
31032/1508 SLP213 T00281028





000
SAUS43 KUNR 281601
MTR2WX
METAR K2WX 281556Z AUTO 31021G30KT 02/M04 A3005 RMK AO1 PK WND
31031/1457 SLP201 T00171039





000
SAUS43 KUNR 281601
MTR2WX
METAR K2WX 281556Z AUTO 31021G30KT 02/M04 A3005 RMK AO1 PK WND
31031/1457 SLP201 T00171039





000
SAUS43 KUNR 281559 COR
MTRD07
METAR KD07 281556Z AUTO 31023G30KT 03/M03 A3009 RMK AO1 PK WND
31032/1508 SLP213 T00281028





000
SAUS43 KUNR 281559 COR
MTRD07
METAR KD07 281556Z AUTO 31023G30KT 03/M03 A3009 RMK AO1 PK WND
31032/1508 SLP213 T00281028





000
SAUS43 KUNR 281558
MTRD07
METAR KD07 281556Z AUTO 31023G30KT 03/M03 A3009 RMK AO1 PK WND
31032/1508 SLP213 T00281028





000
SAUS43 KUNR 281558
MTRD07
METAR KD07 281556Z AUTO 31023G30KT 03/M03 A3009 RMK AO1 PK WND
31032/1508 SLP213 T00281028





000
SAUS43 KUNR 281501
MTR2WX
METAR K2WX 281456Z AUTO 31024G29KT 02/M04 A3003 RMK AO1 PK WND
31029/1451 SLP193 T00171039 53015





000
SAUS43 KUNR 281457
MTRD07
METAR KD07 281456Z AUTO 32021G26KT 02/M02 A3008 RMK AO1 PK WND
32026/1454 SLP208 T00221022 53020





000
SAUS43 KUNR 281401
MTR2WX
METAR K2WX 281356Z AUTO 31024G29KT 01/M04 A3001 RMK AO1 PK WND
31032/1325 SLP186 T00111039





000
SAUS43 KUNR 281357
MTRD07
METAR KD07 281356Z AUTO 30016KT 01/M03 A3005 RMK AO1 SLP201
T00111028





000
SAUS43 KUNR 281300
MTR2WX
METAR K2WX 281256Z AUTO 30017G25KT 01/M03 A2999 RMK AO1 PK WND
30026/1219 SLP180 T00111033





000
SAUS43 KUNR 281257
MTRD07
METAR KD07 281256Z AUTO 30017KT 01/M03 A3002 RMK AO1 PK WND
31027/1217 SLP192 T00111028





000
SAUS43 KUNR 281204 COR
MTRD07
METAR KD07 281156Z AUTO 30018G26KT 02/M02 A3001 RMK AO1 PK WND
30027/1144 SLP187 70001 T00221022 10033 20017 53008





000
SAUS43 KUNR 281202 COR
MTR2WX
METAR K2WX 281156Z AUTO 30017G24KT 01/M03 A2998 RMK AO1 SLP175 70001
T00111033 10017 20011 53011





000
SAUS43 KUNR 281201 COR
MTRD07
METAR KD07 281156Z AUTO 30018G26KT 02/M02 A3001 RMK AO1 PK WND
30027/1144 SLP187 70001 T00221022 10033 20017 53008





000
SAUS43 KUNR 281201 COR
MTR2WX
METAR K2WX 281156Z AUTO 30017G24KT 01/M03 A2998 RMK AO1 SLP175 70001
T00111033 10017 20011 53011





000
SAUS43 KUNR 281200
MTR2WX
METAR K2WX 281156Z AUTO 30017G24KT 01/M03 A2998 RMK AO1 SLP175 70001
T00111033 10017 20011 53011





000
SAUS43 KUNR 281159 COR
MTRD07
METAR KD07 281156Z AUTO 30018G26KT 02/M02 A3001 RMK AO1 PK WND
30027/1144 SLP187 70001 T00221022 10033 20017 53008





000
SAUS43 KUNR 281157
MTRD07
METAR KD07 281156Z AUTO 30018G26KT 02/M02 A3001 RMK AO1 PK WND
30027/1144 SLP187 70001 T00221022 10033 20017 53008





000
SAUS43 KUNR 281100
MTR2WX
METAR K2WX 281056Z AUTO 29018KT 01/M03 A2997 RMK AO1 PK WND
29027/1008 SLP170 T00111033





000
SAUS43 KUNR 281057
MTRD07
METAR KD07 281056Z AUTO 29016KT 02/M03 A3000 RMK AO1 SLP183
T00221028





000
SAUS43 KUNR 281002 COR
MTR2WX
METAR K2WX 280956Z AUTO 29021KT 01/M03 A2996 RMK AO1 PK WND
30028/0912 SLP167 T00111033





000
SAUS43 KUNR 281001 COR
MTR2WX
METAR K2WX 280956Z AUTO 29021KT 01/M03 A2996 RMK AO1 PK WND
30028/0912 SLP167 T00111033





000
SAUS43 KUNR 281000
MTR2WX
METAR K2WX 280956Z AUTO 29021KT 01/M03 A2996 RMK AO1 PK WND
30028/0912 SLP167 T00111033





000
SAUS43 KUNR 280957
MTRD07
METAR KD07 280956Z AUTO 29019KT 02/M03 A2999 RMK AO1 PK WND
29031/0925 SLP176 T00171028





000
SAUS43 KUNR 280957
MTRD07
METAR KD07 280956Z AUTO 29019KT 02/M03 A2999 RMK AO1 PK WND
29031/0925 SLP176 T00171028





000
SAUS43 KUNR 280904 COR
MTRD07
METAR KD07 280856Z AUTO 29021G26KT 03/M02 A2999 RMK AO1 PK WND
29030/0822 SLP171 T00281022 51014





000
SAUS43 KUNR 280902 COR
MTRD07
METAR KD07 280856Z AUTO 29021G26KT 03/M02 A2999 RMK AO1 PK WND
29030/0822 SLP171 T00281022 51014





000
SAUS43 KUNR 280901
MTR2WX
METAR K2WX 280856Z AUTO 29019G24KT 01/M03 A2995 RMK AO1 PK WND
29029/0805 SLP165 T00111033 51012





000
SAUS43 KUNR 280859 COR
MTRD07
METAR KD07 280856Z AUTO 29021G26KT 03/M02 A2999 RMK AO1 PK WND
29030/0822 SLP171 T00281022 51014





000
SAUS43 KUNR 280857
MTRD07
METAR KD07 280856Z AUTO 29021G26KT 03/M02 A2999 RMK AO1 PK WND
29030/0822 SLP171 T00281022 51014





000
SAUS43 KUNR 280800
MTR2WX
METAR K2WX 280756Z AUTO 29022KT 02/M03 A2995 RMK AO1 PK WND
30029/0706 SLP159 T00171033





000
SAUS43 KUNR 280800
MTR2WX
METAR K2WX 280756Z AUTO 29022KT 02/M03 A2995 RMK AO1 PK WND
30029/0706 SLP159 T00171033





000
SAUS43 KUNR 280758
MTRD07
METAR KD07 280756Z AUTO 30018G28KT 03/M02 A2997 RMK AO1 PK WND
29032/0713 SLP164 T00331017





    US Dept of Commerce
    National Oceanic and Atmospheric Administration
    National Weather Service
    1325 East West Highway
    Silver Spring, MD 20910
    Page Author: NWS Internet Services Team
Disclaimer
Information Quality
Credits
Glossary
Privacy Policy
Freedom of Information Act (FOIA)
About Us
Career Opportunities